Blythe, CA

3:23 PM PDT on September 30, 2014 (GMT -0700)
Imperial County | Change Station
CLOSE
Current Station
Airport
Location: Imperial,
Elevation: -56 ft
Nearby Weather Stations

Elev -56 ft 32.83 °N, 115.58 °W | Updated 30 minutes ago

Clear
Clear
93 °F
Feels Like 93 °F
N
4
Wind Variable Wind from NW

Today
High -- | Low -- °F
--% Chance of Precip.
Yesterday
High -- | Low -- °F
Precip. -- in
6:32 AM 6:24 PM
Waxing Crescent, 40% visible
Pressure 29.71 in
Visibility 10.0 miles
Clouds Clear
Dew Point 39 °F
Humidity 15%
Rainfall 0.00 in
Snow Depth 0 in , 1 in , 0 in
UV 5 out of 12
Pollen 7.70 out of 12
Ozone Good
Flu Activity Not available.
METAR KIPL 302153Z AUTO 31003KT 10SM CLR 34/04 A2970 RMK AO2 SLP059 T03390039

More Conditions Fewer Conditions

Pressure 29.71 in
Visibility 10.0 miles
Clouds Clear
Dew Point 39 °F
Humidity 15%
Rainfall 0.00 in
Snow Depth 0 in , 1 in , 0 in
UV 5 out of 12
Pollen 7.70 out of 12
Ozone Good
Flu Activity Not available.
METAR KIPL 302153Z AUTO 31003KT 10SM CLR 34/04 A2970 RMK AO2 SLP059 T03390039

More Conditions Fewer Conditions

10-Day Weather Forecast

Almanac

Astronomy

Sep. 30, 2014 Rise Set
Actual Time 6:32 AM PDT 6:24 PM PDT
Civil Twilight 6:07 AM PDT 6:48 PM PDT
Nautical Twilight 5:38 AM PDT 7:17 PM PDT
Astronomical Twilight 5:09 AM PDT 7:46 PM PDT
Moon 12:31 PM PDT 11:11 PM PDT
Length of Visible Light 12h 41m
Length of Day
11h 51m
Tomorrow will be 2m 4s shorter.
Waxing Crescent, 40% of the Moon is Illuminated
Today
Waxing Crescent
Oct 1
First Quarter
Oct 8
Full
Oct 15
Last Quarter
Oct 23
New

Today's Extremes

State Highs State Lows

Community

WunderPhotos

Upload Photos

1,757,767 photos uploaded!

Nearby

Air Quality

  Air Quality AQ Index Pollutant
Yesterday Good
OZONE
Yesterday Good
PM10
Current Good
OZONE
Wednesday Good
PM10
Wednesday Good
OZONE
Wednesday Good
CO
Wednesday Good
NO2

Snow Depth

Station Depth Elevation
Adin Mountain 0 in 6200 ft
CSS Lab 1 in 6900 ft
Squaw Valley 0 in 8200 ft
Rubicon #2 0 in 7500 ft
Monitor Pass 0 in 8350 ft

Earthquake Activity

City Distance Mag. Time & Date
No recent earthquake activity has been reported nearby.
Minimum magnitude displayed is 2.5.

Coastal Water Temperatures

Place Temperature
No Stations Reporting

Nearby Weather Stations